Time;durP1;ratioP1;P1;durP2;ratioP2;P2;SDS_P1;SDS_P2;PMS_P1;PMS_P2;Temp;Humidity;BMP_temperature;BMP_pressure;BME280_temperature;BME280_humidity;BME280_pressure;Samples;Min_cycle;Max_cycle;Signal;HPM_P1;HPM_P2
2021/07/25 00:03:13;;;;;;;15.60;13.87;;;20.20;86.60;;;;;;10409811;28;20201;-30
2021/07/25 00:08:35;;;;;;;22.50;16.30;;;20.20;86.20;;;;;;10393161;28;20365;-30
2021/07/25 00:14:02;;;;;;;18.43;16.50;;;20.20;87.00;;;;;;10370583;28;20222;-31
2021/07/25 00:19:25;;;;;;;19.60;17.50;;;20.20;87.20;;;;;;10370831;28;20217;-30
2021/07/25 00:24:51;;;;;;;20.70;17.00;;;20.20;88.00;;;;;;10370338;28;20674;-28
2021/07/25 00:30:14;;;;;;;20.33;17.93;;;20.20;88.50;;;;;;10391596;28;20291;-28
2021/07/25 00:35:38;;;;;;;22.00;17.43;;;20.20;88.40;;;;;;10411331;28;20233;-31
2021/07/25 00:41:09;;;;;;;23.97;18.60;;;20.20;88.00;;;;;;10408164;28;20218;-29
2021/07/25 00:46:31;;;;;;;21.23;18.30;;;20.10;88.30;;;;;;10329267;28;20223;-31
2021/07/25 00:51:54;;;;;;;22.07;18.00;;;20.10;88.80;;;;;;10329987;28;20245;-28
2021/07/25 00:57:16;;;;;;;20.30;18.03;;;20.10;88.20;;;;;;10368695;28;20239;-29
2021/07/25 01:02:48;;;;;;;20.37;18.20;;;20.10;88.30;;;;;;10377812;28;20199;-29
2021/07/25 01:08:22;;;;;;;18.40;16.47;;;20.10;88.70;;;;;;10411203;28;20213;-29
2021/07/25 01:13:48;;;;;;;21.47;18.37;;;20.10;88.90;;;;;;10417485;28;20217;-29
2021/07/25 01:19:10;;;;;;;19.70;17.60;;;20.10;88.60;;;;;;10416175;28;20221;-28
2021/07/25 01:24:34;;;;;;;19.80;17.70;;;20.10;89.40;;;;;;10378679;28;20202;-29
2021/07/25 01:29:58;;;;;;;20.90;18.07;;;20.10;89.60;;;;;;10334816;28;20222;-29
2021/07/25 01:35:22;;;;;;;19.73;17.63;;;20.10;90.00;;;;;;10336204;28;20214;-30
2021/07/25 01:41:01;;;;;;;20.10;17.60;;;20.10;90.20;;;;;;10336136;28;20218;-28
2021/07/25 01:46:23;;;;;;;21.00;17.67;;;20.00;90.20;;;;;;10357835;28;20187;-29
2021/07/25 01:51:45;;;;;;;20.67;17.20;;;20.00;90.30;;;;;;10362711;28;20222;-29
2021/07/25 01:57:09;;;;;;;19.73;17.03;;;20.00;90.20;;;;;;10375242;28;20218;-30
2021/07/25 02:02:31;;;;;;;20.30;17.47;;;20.00;90.30;;;;;;10375187;28;20193;-28
2021/07/25 02:07:53;;;;;;;19.50;17.43;;;20.00;90.40;;;;;;10374821;28;20222;-29
2021/07/25 02:13:18;;;;;;;21.43;18.77;;;20.00;90.40;;;;;;10373166;28;20214;-29
2021/07/25 02:18:40;;;;;;;22.97;18.90;;;20.00;90.40;;;;;;10374699;28;20289;-28
2021/07/25 02:24:02;;;;;;;20.90;18.67;;;20.00;90.40;;;;;;10374483;28;20675;-29
2021/07/25 02:29:25;;;;;;;21.73;19.43;;;20.00;90.40;;;;;;10374214;28;20218;-29
2021/07/25 02:34:48;;;;;;;22.77;20.37;;;20.00;90.40;;;;;;10374444;28;20214;-29
2021/07/25 02:40:11;;;;;;;27.43;21.93;;;20.00;90.40;;;;;;10373569;28;20229;-29
2021/07/25 02:45:34;;;;;;;23.40;20.90;;;20.00;90.30;;;;;;10375010;28;20202;-29
2021/07/25 02:50:58;;;;;;;26.97;22.50;;;20.00;90.40;;;;;;10373858;28;20219;-30
2021/07/25 02:56:20;;;;;;;25.77;22.37;;;20.00;90.40;;;;;;10396375;28;20233;-30
2021/07/25 03:01:45;;;;;;;28.10;24.03;;;20.00;90.60;;;;;;10412423;28;20244;-28
2021/07/25 03:07:07;;;;;;;31.10;24.50;;;20.00;90.40;;;;;;10414154;28;20217;-29
2021/07/25 03:12:29;;;;;;;31.77;24.90;;;20.00;90.40;;;;;;10410708;28;20704;-28
2021/07/25 03:17:53;;;;;;;32.47;25.83;;;20.00;90.30;;;;;;10412323;28;20218;-31
2021/07/25 03:23:15;;;;;;;32.47;25.37;;;20.00;90.40;;;;;;10373587;28;20714;-28
2021/07/25 03:28:37;;;;;;;29.17;25.70;;;20.00;90.40;;;;;;10406469;28;20685;-29
2021/07/25 03:34:00;;;;;;;31.80;26.97;;;19.90;90.30;;;;;;10372001;28;20578;-29
2021/07/25 03:39:23;;;;;;;33.93;28.10;;;19.90;90.30;;;;;;10372366;28;20225;-31
2021/07/25 03:44:45;;;;;;;36.43;29.17;;;20.00;90.30;;;;;;10371994;28;20294;-29
2021/07/25 03:50:10;;;;;;;35.87;28.47;;;20.00;90.30;;;;;;10361142;28;20226;-29
2021/07/25 03:55:32;;;;;;;38.53;28.90;;;20.00;90.10;;;;;;10372246;28;20590;-29
2021/07/25 04:00:54;;;;;;;36.50;29.07;;;19.90;90.20;;;;;;10368480;28;20248;-29
2021/07/25 04:06:17;;;;;;;35.60;30.13;;;19.90;90.10;;;;;;10371209;28;20198;-32
2021/07/25 04:11:39;;;;;;;36.70;30.93;;;19.90;90.10;;;;;;10369889;28;20218;-28
2021/07/25 04:17:02;;;;;;;37.40;30.20;;;19.90;90.10;;;;;;10367807;28;20201;-29
2021/07/25 04:22:25;;;;;;;39.17;30.93;;;19.90;90.10;;;;;;10391347;28;20209;-29
2021/07/25 04:27:48;;;;;;;40.57;30.50;;;19.90;90.00;;;;;;10370871;28;20293;-31
2021/07/25 04:33:10;;;;;;;36.93;31.07;;;19.90;90.00;;;;;;10378288;28;20210;-29
2021/07/25 04:38:34;;;;;;;38.50;30.93;;;19.90;90.00;;;;;;10378322;28;20218;-27
2021/07/25 04:44:04;;;;;;;36.03;30.97;;;19.90;90.10;;;;;;10376903;28;20199;-28
2021/07/25 04:49:34;;;;;;;38.80;31.10;;;19.90;90.10;;;;;;10384609;28;20211;-27
2021/07/25 04:55:01;;;;;;;41.30;31.47;;;19.90;90.10;;;;;;10377850;28;20213;-30
2021/07/25 05:00:23;;;;;;;37.23;31.73;;;19.90;90.10;;;;;;10377774;28;20242;-28
2021/07/25 05:05:45;;;;;;;37.87;31.33;;;19.90;90.10;;;;;;10378442;28;20202;-31
2021/07/25 05:11:16;;;;;;;39.20;31.80;;;19.90;90.00;;;;;;10376975;28;20222;-29
2021/07/25 05:16:46;;;;;;;38.57;31.17;;;19.90;90.30;;;;;;10377532;28;20691;-30
2021/07/25 05:22:18;;;;;;;35.77;30.50;;;19.90;90.00;;;;;;10392490;28;20186;-29
2021/07/25 05:27:44;;;;;;;38.00;30.60;;;19.90;90.00;;;;;;10416732;28;20218;-28
2021/07/25 05:33:07;;;;;;;35.80;30.23;;;19.90;90.00;;;;;;10382780;28;20632;-30
2021/07/25 05:38:29;;;;;;;38.00;30.43;;;20.00;89.80;;;;;;10401330;28;20218;-30
2021/07/25 05:43:53;;;;;;;36.30;28.83;;;19.90;89.60;;;;;;10415233;28;20564;-29
2021/07/25 05:49:15;;;;;;;39.20;29.20;;;20.00;89.70;;;;;;10368302;28;20218;-29
2021/07/25 05:54:37;;;;;;;40.17;31.13;;;20.00;89.50;;;;;;10364971;28;20218;-28
2021/07/25 06:00:00;;;;;;;38.47;31.03;;;20.00;89.60;;;;;;10392484;23;20570;-27
2021/07/25 06:05:23;;;;;;;38.40;30.83;;;20.00;89.90;;;;;;10400378;28;20200;-25
2021/07/25 06:10:45;;;;;;;38.67;29.70;;;20.10;89.60;;;;;;10351008;28;20230;-24
2021/07/25 06:16:08;;;;;;;35.03;27.67;;;20.10;89.10;;;;;;10333073;28;20603;-23
2021/07/25 06:21:31;;;;;;;33.27;28.13;;;20.10;88.70;;;;;;10344948;28;20241;-24
2021/07/25 06:26:53;;;;;;;33.53;26.57;;;20.10;88.00;;;;;;10332453;28;20199;-24
2021/07/25 06:32:16;;;;;;;31.97;25.83;;;20.10;87.90;;;;;;10332443;28;20223;-24
2021/07/25 06:37:38;;;;;;;30.57;25.27;;;20.20;87.60;;;;;;10332488;28;20223;-23
2021/07/25 06:43:02;;;;;;;30.00;25.40;;;20.20;87.40;;;;;;10331371;28;20191;-22
2021/07/25 06:48:27;;;;;;;30.17;23.80;;;20.20;87.20;;;;;;10357619;28;20590;-23
2021/07/25 06:53:49;;;;;;;29.73;22.03;;;20.20;87.10;;;;;;10329862;28;20222;-24
2021/07/25 06:59:11;;;;;;;23.90;20.90;;;20.20;87.40;;;;;;10331098;28;20231;-23
2021/07/25 07:04:34;;;;;;;26.73;21.27;;;20.20;87.00;;;;;;10330996;28;20198;-23
2021/07/25 07:09:56;;;;;;;24.33;20.17;;;20.20;86.50;;;;;;10330883;28;20221;-23
2021/07/25 07:15:20;;;;;;;24.30;20.10;;;20.20;86.80;;;;;;10330547;28;20922;-23
2021/07/25 07:20:43;;;;;;;25.17;19.33;;;20.20;86.60;;;;;;10336412;28;20214;-24
2021/07/25 07:26:06;;;;;;;21.83;18.30;;;20.20;87.00;;;;;;10328977;28;20187;-23
2021/07/25 07:31:28;;;;;;;23.37;19.97;;;20.30;86.30;;;;;;10330083;28;20223;-25
2021/07/25 07:36:51;;;;;;;24.10;19.03;;;20.30;86.40;;;;;;10329886;28;20227;-24
2021/07/25 07:42:14;;;;;;;20.90;17.93;;;20.30;86.60;;;;;;10328957;28;20215;-24
2021/07/25 07:47:36;;;;;;;20.93;18.10;;;20.30;86.60;;;;;;10343038;28;20187;-23
2021/07/25 07:52:59;;;;;;;22.10;18.70;;;20.30;86.30;;;;;;10329292;28;20222;-23
2021/07/25 07:58:21;;;;;;;20.67;17.03;;;20.40;86.50;;;;;;10329060;28;20226;-26
2021/07/25 08:03:43;;;;;;;22.37;16.83;;;20.30;86.30;;;;;;10328843;28;20687;-22
2021/07/25 08:09:06;;;;;;;19.60;16.93;;;20.40;85.70;;;;;;10335685;28;20215;-24
2021/07/25 08:14:29;;;;;;;19.30;17.10;;;20.40;86.20;;;;;;10330953;28;20226;-23
2021/07/25 08:19:51;;;;;;;22.47;16.70;;;20.40;86.20;;;;;;10328790;28;20230;-23
2021/07/25 08:25:14;;;;;;;18.90;15.83;;;20.30;86.10;;;;;;10328933;28;20191;-24
2021/07/25 08:30:36;;;;;;;17.30;15.30;;;20.40;86.30;;;;;;10327167;28;20216;-24
2021/07/25 08:35:58;;;;;;;19.83;15.27;;;20.40;86.00;;;;;;10328541;28;20229;-23
2021/07/25 08:41:36;;;;;;;19.43;14.47;;;20.40;85.90;;;;;;10327498;28;20214;-25
2021/07/25 08:46:58;;;;;;;15.73;14.13;;;20.40;86.00;;;;;;10325953;28;20277;-24
2021/07/25 08:52:22;;;;;;;20.03;14.57;;;20.40;85.90;;;;;;10321357;28;20206;-24
2021/07/25 08:57:48;;;;;;;16.33;13.50;;;20.40;85.90;;;;;;10328117;28;20210;-25
2021/07/25 09:03:11;;;;;;;16.13;12.97;;;20.40;85.90;;;;;;10328132;28;20194;-23
2021/07/25 09:08:35;;;;;;;15.20;13.23;;;20.40;85.80;;;;;;10327694;28;20301;-25
2021/07/25 09:13:59;;;;;;;14.63;12.37;;;20.40;85.90;;;;;;10328130;28;20218;-23
2021/07/25 09:19:21;;;;;;;13.90;12.03;;;20.40;85.70;;;;;;10334329;28;20241;-24
2021/07/25 09:24:43;;;;;;;14.57;11.97;;;20.40;85.50;;;;;;10372977;28;20267;-24
2021/07/25 09:30:20;;;;;;;13.40;12.00;;;20.40;85.20;;;;;;10373935;28;20714;-24
2021/07/25 09:35:42;;;;;;;13.97;12.27;;;20.40;85.20;;;;;;10374379;28;20636;-23
2021/07/25 09:41:22;;;;;;;13.47;12.07;;;20.50;85.40;;;;;;10371136;28;20225;-23
2021/07/25 09:46:49;;;;;;;14.63;11.63;;;20.40;85.30;;;;;;10348250;28;20222;-23
2021/07/25 09:52:12;;;;;;;14.20;11.93;;;20.40;85.30;;;;;;10332350;28;20758;-23
2021/07/25 09:57:36;;;;;;;13.33;11.70;;;20.40;85.20;;;;;;10328671;28;20211;-21
2021/07/25 10:02:59;;;;;;;12.43;11.13;;;20.50;85.50;;;;;;10330188;28;20199;-23
2021/07/25 10:08:22;;;;;;;12.63;11.33;;;20.40;85.30;;;;;;10332925;28;20223;-23
2021/07/25 10:13:47;;;;;;;12.10;10.80;;;20.40;85.40;;;;;;10302582;28;20215;-22
2021/07/25 10:19:12;;;;;;;12.80;11.30;;;20.40;85.40;;;;;;10351657;28;20226;-23
2021/07/25 10:24:35;;;;;;;11.13;10.07;;;20.40;85.40;;;;;;10336628;28;20203;-24
2021/07/25 10:30:03;;;;;;;11.57;10.47;;;20.40;85.40;;;;;;10341326;28;20226;-23
2021/07/25 10:35:27;;;;;;;12.43;10.50;;;20.40;85.30;;;;;;10323471;28;20235;-22
2021/07/25 10:40:51;;;;;;;11.87;10.60;;;20.40;85.30;;;;;;10331959;28;20226;-22
2021/07/25 10:46:21;;;;;;;12.40;10.07;;;20.40;85.30;;;;;;10350501;28;20194;-24
2021/07/25 10:52:02;;;;;;;11.93;10.13;;;20.40;85.20;;;;;;10292867;28;20402;-25
2021/07/25 10:57:24;;;;;;;10.73;9.73;;;20.40;85.10;;;;;;10329315;28;20750;-24
2021/07/25 11:02:55;;;;;;;10.70;9.27;;;20.40;85.10;;;;;;10330943;28;20206;-25
2021/07/25 11:08:32;;;;;;;11.97;10.03;;;20.40;85.00;;;;;;10330753;28;20215;-23
2021/07/25 11:13:54;;;;;;;10.70;9.03;;;20.40;84.90;;;;;;10328819;28;20285;-23
2021/07/25 11:19:46;;;;;;;9.50;8.50;;;20.40;85.00;;;;;;10327183;28;20230;-23
2021/07/25 11:25:10;;;;;;;9.43;8.53;;;20.40;84.70;;;;;;10306577;28;20556;-24
2021/07/25 11:31:06;;;;;;;11.00;9.37;;;20.40;84.70;;;;;;10334465;28;20575;-25
2021/07/25 11:36:28;;;;;;;9.23;8.33;;;20.40;84.70;;;;;;10327450;28;20314;-25
2021/07/25 11:41:51;;;;;;;8.90;7.80;;;20.40;84.30;;;;;;10328150;28;20594;-24
2021/07/25 11:47:13;;;;;;;9.70;8.27;;;20.40;84.40;;;;;;10328315;28;20213;-23
2021/07/25 11:52:35;;;;;;;9.13;8.23;;;20.40;84.30;;;;;;10328853;28;20210;-23
2021/07/25 12:03:27;;;;;;;9.97;8.40;;;20.40;84.10;;;;;;10403731;28;20221;-30
2021/07/25 12:09:08;;;;;;;10.47;9.10;;;20.40;83.90;;;;;;10408141;28;20217;-32
2021/07/25 12:14:32;;;;;;;13.93;10.07;;;20.40;83.90;;;;;;10381380;28;20722;-35
2021/07/25 12:20:09;;;;;;;13.00;9.20;;;20.40;84.00;;;;;;10369429;28;20268;-31
2021/07/25 12:25:34;;;;;;;13.47;8.73;;;20.40;83.90;;;;;;10328618;28;20208;-32
2021/07/25 12:30:57;;;;;;;12.97;9.37;;;20.40;84.10;;;;;;10380805;28;20229;-32
2021/07/25 12:36:23;;;;;;;10.73;8.70;;;20.40;84.20;;;;;;10380504;28;20609;-37
2021/07/25 12:41:45;;;;;;;11.23;9.40;;;20.40;84.00;;;;;;10369285;28;20269;-31
2021/07/25 12:47:28;;;;;;;10.80;8.47;;;20.40;84.10;;;;;;10369421;28;20253;-31
2021/07/25 12:53:18;;;;;;;11.53;8.33;;;20.40;84.00;;;;;;10373346;28;20210;-33
2021/07/25 12:58:43;;;;;;;12.07;8.57;;;20.40;83.90;;;;;;10397605;28;20620;-29
2021/07/25 13:04:06;;;;;;;9.93;7.90;;;20.40;84.00;;;;;;10417263;28;20219;-29
2021/07/25 13:09:29;;;;;;;12.87;8.90;;;20.40;83.90;;;;;;10417356;28;20351;-29
2021/07/25 13:14:51;;;;;;;9.77;8.77;;;20.40;83.90;;;;;;10415514;28;20222;-29
2021/07/25 13:20:14;;;;;;;10.63;9.07;;;20.40;83.90;;;;;;10416132;28;20214;-28
2021/07/25 13:25:37;;;;;;;10.20;9.20;;;20.40;83.80;;;;;;10355660;28;20193;-34
2021/07/25 13:30:59;;;;;;;9.63;8.57;;;20.40;83.90;;;;;;10397757;28;20214;-30
2021/07/25 13:36:21;;;;;;;9.50;8.30;;;20.40;83.80;;;;;;10393409;28;20234;-30
2021/07/25 13:41:45;;;;;;;9.77;8.57;;;20.40;83.80;;;;;;10389783;28;20222;-30
2021/07/25 13:47:08;;;;;;;9.20;8.30;;;20.40;83.70;;;;;;10372425;28;20190;-34
2021/07/25 13:52:30;;;;;;;12.17;7.97;;;20.40;83.80;;;;;;10371514;28;20237;-32
2021/07/25 13:57:54;;;;;;;8.77;7.83;;;20.50;82.90;;;;;;10410205;28;20223;-30
2021/07/25 14:03:16;;;;;;;9.77;8.20;;;20.50;82.40;;;;;;10369100;28;20206;-30
2021/07/25 14:08:38;;;;;;;9.33;8.33;;;20.60;82.00;;;;;;10380331;28;20206;-33
2021/07/25 14:14:02;;;;;;;11.20;8.40;;;20.60;82.40;;;;;;10366558;28;20218;-29
2021/07/25 14:19:24;;;;;;;8.13;7.23;;;20.60;82.00;;;;;;10409607;28;20220;-30
2021/07/25 14:24:46;;;;;;;8.57;7.67;;;20.60;82.20;;;;;;10375552;28;20701;-29
2021/07/25 14:30:11;;;;;;;9.67;7.93;;;20.50;82.30;;;;;;10373335;28;20221;-31
2021/07/25 14:35:33;;;;;;;7.47;6.37;;;20.50;82.30;;;;;;10332046;28;20214;-29
2021/07/25 14:40:55;;;;;;;10.70;6.10;;;20.50;82.20;;;;;;10362006;28;20226;-32
2021/07/25 14:46:19;;;;;;;8.23;6.40;;;20.50;81.30;;;;;;10376802;28;20190;-33
2021/07/25 14:51:41;;;;;;;7.03;6.33;;;20.60;80.80;;;;;;10371276;28;20215;-36
2021/07/25 14:57:03;;;;;;;7.77;6.97;;;20.60;80.50;;;;;;10379963;28;20257;-33
2021/07/25 15:02:27;;;;;;;9.20;7.37;;;20.70;80.50;;;;;;10371227;28;20225;-32
2021/07/25 15:07:50;;;;;;;9.93;6.87;;;20.70;80.40;;;;;;10370539;28;20566;-37
2021/07/25 15:13:12;;;;;;;6.90;6.20;;;20.70;80.30;;;;;;10372448;28;20762;-32
2021/07/25 15:18:35;;;;;;;7.77;6.50;;;20.70;80.20;;;;;;10405979;28;20240;-33
2021/07/25 15:23:58;;;;;;;8.37;7.03;;;20.70;80.10;;;;;;10366720;28;20579;-35
2021/07/25 15:29:21;;;;;;;10.53;7.07;;;20.70;80.00;;;;;;10330693;28;20219;-32
2021/07/25 15:34:44;;;;;;;7.10;6.40;;;20.70;79.90;;;;;;10348946;28;20268;-31
2021/07/25 15:40:08;;;;;;;8.43;6.23;;;20.70;79.70;;;;;;10363911;28;20219;-32
2021/07/25 15:45:30;;;;;;;7.67;6.83;;;20.80;79.70;;;;;;10361793;28;20201;-33
2021/07/25 15:50:54;;;;;;;7.00;6.30;;;20.80;79.70;;;;;;10405812;28;20217;-34
2021/07/25 15:56:16;;;;;;;7.83;5.80;;;20.80;79.20;;;;;;10394384;28;20646;-30
2021/07/25 16:01:38;;;;;;;9.67;6.90;;;20.80;79.00;;;;;;10369037;28;20593;-31
2021/07/25 16:07:01;;;;;;;7.37;6.67;;;20.80;78.90;;;;;;10372689;28;20195;-32
2021/07/25 16:12:23;;;;;;;7.20;6.50;;;20.80;78.80;;;;;;10400224;28;20222;-34
2021/07/25 16:17:46;;;;;;;9.93;6.87;;;20.80;78.70;;;;;;10390694;28;20606;-32
2021/07/25 16:23:09;;;;;;;9.47;6.43;;;20.80;78.70;;;;;;10366859;28;20202;-32
2021/07/25 16:28:31;;;;;;;6.93;6.20;;;20.80;78.60;;;;;;10379765;28;20719;-33
2021/07/25 16:33:53;;;;;;;7.00;6.33;;;20.80;78.40;;;;;;10392888;28;20199;-33
2021/07/25 16:39:18;;;;;;;7.63;6.30;;;20.80;78.40;;;;;;10395406;28;20221;-33
2021/07/25 16:44:40;;;;;;;7.77;6.27;;;20.90;78.30;;;;;;10395193;28;20565;-29
2021/07/25 16:50:02;;;;;;;7.50;6.43;;;20.80;78.10;;;;;;10395642;28;20700;-38
2021/07/25 16:55:26;;;;;;;7.00;6.30;;;20.80;78.10;;;;;;10395866;28;20558;-34
2021/07/25 17:00:48;;;;;;;6.70;6.07;;;20.80;78.20;;;;;;10395346;28;20701;-30
2021/07/25 17:06:10;;;;;;;8.63;6.50;;;20.90;78.00;;;;;;10392534;28;20193;-33
2021/07/25 17:11:33;;;;;;;7.90;6.47;;;20.90;78.10;;;;;;10384853;28;20230;-32
2021/07/25 17:16:56;;;;;;;8.03;5.73;;;20.80;77.90;;;;;;10385151;28;20214;-32
2021/07/25 17:22:18;;;;;;;7.83;6.30;;;20.80;78.00;;;;;;10386914;28;20221;-35
2021/07/25 17:27:41;;;;;;;8.20;5.77;;;20.80;78.10;;;;;;10393711;28;20198;-33
2021/07/25 17:33:04;;;;;;;7.73;5.93;;;20.80;78.10;;;;;;10409665;28;20197;-33
2021/07/25 17:38:26;;;;;;;7.47;6.40;;;20.80;78.00;;;;;;10406677;28;20217;-34
2021/07/25 17:43:50;;;;;;;6.93;6.23;;;20.70;78.60;;;;;;10409985;28;20229;-31
2021/07/25 17:49:12;;;;;;;6.53;5.83;;;20.70;78.90;;;;;;10390012;28;20225;-36
2021/07/25 17:54:34;;;;;;;6.97;6.27;;;20.70;79.20;;;;;;10410169;28;20691;-32
2021/07/25 17:59:57;;;;;;;7.23;6.20;;;20.70;79.30;;;;;;10408081;28;20225;-32
2021/07/25 18:05:20;;;;;;;6.00;5.40;;;20.70;79.50;;;;;;10389445;28;20348;-32
2021/07/25 18:10:43;;;;;;;6.90;6.20;;;20.70;80.10;;;;;;10408171;28;20570;-34
2021/07/25 18:16:06;;;;;;;6.33;5.73;;;20.60;79.70;;;;;;10388590;28;20245;-34
2021/07/25 18:21:28;;;;;;;6.70;6.00;;;20.70;79.90;;;;;;10379731;28;20689;-31
2021/07/25 18:26:55;;;;;;;6.70;6.10;;;20.70;80.10;;;;;;10412108;22;20236;-24
2021/07/25 18:32:19;;;;;;;7.07;6.37;;;20.60;80.10;;;;;;10422596;28;20197;-26
2021/07/25 18:37:41;;;;;;;6.90;6.20;;;20.70;80.30;;;;;;10426113;28;20760;-24
2021/07/25 18:43:04;;;;;;;6.70;6.10;;;20.60;80.30;;;;;;10426573;28;20193;-24
2021/07/25 18:48:27;;;;;;;7.37;6.67;;;20.60;80.30;;;;;;10427216;28;20209;-24
2021/07/25 18:53:49;;;;;;;6.80;6.10;;;20.60;80.50;;;;;;10425034;28;20571;-25
2021/07/25 18:59:12;;;;;;;6.43;5.83;;;20.60;80.50;;;;;;10425338;28;20225;-26
2021/07/25 19:04:35;;;;;;;7.10;6.00;;;20.60;80.60;;;;;;10423824;28;20691;-27
2021/07/25 19:09:59;;;;;;;6.10;5.50;;;20.60;80.70;;;;;;10426068;28;20807;-25
2021/07/25 19:15:21;;;;;;;6.20;5.60;;;20.70;80.80;;;;;;10424858;28;20210;-24
2021/07/25 19:20:47;;;;;;;7.63;6.27;;;20.60;80.90;;;;;;10423892;28;20865;-25
2021/07/25 19:26:11;;;;;;;7.10;6.00;;;20.60;80.90;;;;;;10423644;28;20190;-24
2021/07/25 19:31:34;;;;;;;6.70;6.00;;;20.60;81.00;;;;;;10421718;28;20201;-25
2021/07/25 19:36:58;;;;;;;6.40;5.80;;;20.60;81.10;;;;;;10426011;28;20734;-25
2021/07/25 19:42:20;;;;;;;6.87;5.33;;;20.60;81.10;;;;;;10426963;28;20196;-25
2021/07/25 19:47:42;;;;;;;7.00;5.83;;;20.60;81.10;;;;;;10427129;28;20218;-26
2021/07/25 19:53:05;;;;;;;6.03;5.43;;;20.60;81.30;;;;;;10432730;28;20193;-24
2021/07/25 19:58:27;;;;;;;6.03;5.43;;;20.60;81.30;;;;;;10427488;28;20217;-25
2021/07/25 20:03:50;;;;;;;6.57;5.97;;;20.60;81.40;;;;;;10428915;28;20198;-26
2021/07/25 20:09:13;;;;;;;6.97;6.27;;;20.60;81.40;;;;;;10418466;28;20213;-24
2021/07/25 20:14:36;;;;;;;6.77;6.07;;;20.60;81.50;;;;;;10410082;28;20601;-24
2021/07/25 20:19:58;;;;;;;7.03;6.33;;;20.60;81.50;;;;;;10408905;28;20217;-26
2021/07/25 20:25:22;;;;;;;6.77;5.97;;;20.60;81.50;;;;;;10369411;28;20186;-26
2021/07/25 20:30:44;;;;;;;6.80;5.73;;;20.60;81.60;;;;;;10367914;28;20222;-24
2021/07/25 20:36:10;;;;;;;7.27;6.53;;;20.60;81.70;;;;;;10387587;28;20233;-25
2021/07/25 20:41:38;;;;;;;6.90;5.87;;;20.60;81.70;;;;;;10409046;28;20251;-25
2021/07/25 20:47:00;;;;;;;6.07;5.57;;;20.60;81.80;;;;;;10408994;28;20249;-25
2021/07/25 20:52:23;;;;;;;7.10;5.83;;;20.60;81.80;;;;;;10409204;28;20200;-26
2021/07/25 20:57:47;;;;;;;6.70;6.03;;;20.60;81.90;;;;;;10408516;28;20218;-25
2021/07/25 21:03:09;;;;;;;6.20;5.40;;;20.60;82.00;;;;;;10408093;28;20213;-24
2021/07/25 21:08:31;;;;;;;6.53;5.93;;;20.60;82.00;;;;;;10409410;28;20214;-25
2021/07/25 21:13:54;;;;;;;6.23;5.63;;;20.60;82.00;;;;;;10413984;28;20201;-25
2021/07/25 21:19:16;;;;;;;7.10;6.40;;;20.60;82.00;;;;;;10396321;28;20222;-25
2021/07/25 21:24:38;;;;;;;6.90;6.07;;;20.60;82.10;;;;;;10424153;28;20197;-26
2021/07/25 21:30:02;;;;;;;6.40;5.80;;;20.60;82.10;;;;;;10427166;28;20616;-27
2021/07/25 21:35:24;;;;;;;5.93;5.20;;;20.60;82.20;;;;;;10415117;28;20213;-25
2021/07/25 21:40:46;;;;;;;6.80;6.20;;;20.60;82.20;;;;;;10415825;28;20609;-25
2021/07/25 21:46:09;;;;;;;7.10;6.40;;;20.60;82.20;;;;;;10422530;28;20568;-25
2021/07/25 21:51:31;;;;;;;6.80;6.03;;;20.60;82.20;;;;;;10455788;28;20607;-24
2021/07/25 21:56:53;;;;;;;6.73;6.03;;;20.60;82.30;;;;;;10455885;28;20228;-25
2021/07/25 22:02:28;;;;;;;6.60;6.00;;;20.60;82.30;;;;;;10444365;28;20206;-24
2021/07/25 22:07:50;;;;;;;7.33;6.47;;;20.60;82.40;;;;;;10414164;28;20563;-24
2021/07/25 22:13:12;;;;;;;6.90;6.20;;;20.60;82.50;;;;;;10413968;28;20669;-25
2021/07/25 22:18:35;;;;;;;7.30;6.60;;;20.60;82.60;;;;;;10416160;28;20720;-25
2021/07/25 22:24:01;;;;;;;6.93;6.23;;;20.60;82.60;;;;;;10413571;28;20272;-26
2021/07/25 22:29:23;;;;;;;8.07;7.27;;;20.60;83.00;;;;;;10413172;28;20228;-25
2021/07/25 22:34:46;;;;;;;9.10;7.53;;;20.60;83.40;;;;;;10414588;28;20190;-25
2021/07/25 22:40:09;;;;;;;9.37;8.03;;;20.60;83.70;;;;;;10413598;28;20247;-25
2021/07/25 22:45:31;;;;;;;9.17;7.37;;;20.60;84.00;;;;;;10413151;28;20194;-25
2021/07/25 22:50:59;;;;;;;7.90;6.90;;;20.60;84.10;;;;;;10414188;28;20252;-24
2021/07/25 22:56:21;;;;;;;7.83;7.13;;;20.60;83.90;;;;;;10413164;28;20217;-25
2021/07/25 23:01:45;;;;;;;9.07;8.23;;;20.60;83.80;;;;;;10413322;28;20190;-25
2021/07/25 23:07:08;;;;;;;9.90;8.33;;;20.60;84.30;;;;;;10412203;28;20704;-25
2021/07/25 23:12:31;;;;;;;10.33;8.90;;;20.60;84.50;;;;;;10412502;28;20194;-26
2021/07/25 23:17:53;;;;;;;9.23;8.33;;;20.50;84.50;;;;;;10412304;28;20225;-26
2021/07/25 23:23:16;;;;;;;9.97;8.70;;;20.50;84.60;;;;;;10413676;28;20194;-24
2021/07/25 23:28:38;;;;;;;9.73;8.73;;;20.50;84.90;;;;;;10407378;28;20632;-25
2021/07/25 23:34:00;;;;;;;11.90;9.53;;;20.50;85.00;;;;;;10410228;28;20677;-24
2021/07/25 23:39:24;;;;;;;11.10;10.00;;;20.50;85.00;;;;;;10411467;28;20593;-24
2021/07/25 23:44:49;;;;;;;10.50;9.50;;;20.50;84.90;;;;;;10411331;28;20198;-25
2021/07/25 23:50:12;;;;;;;11.40;10.30;;;20.50;84.70;;;;;;10370796;28;20211;-25
2021/07/25 23:55:35;;;;;;;11.00;9.90;;;20.50;84.40;;;;;;10370590;28;20194;-25
